< < Back
Terminal Aerodrome Forecast


Current Version              Previous Versions:   1  2  3  4  5  6  7  8  9  

Terminal Aerodrome Forecast

614
FTUS42 KGSP 040520
TAFAND
TAF
KAND 040520Z 0406/0506 30003KT P6SM FEW250
     FM041500 28008KT P6SM FEW250
     FM041800 26012G20KT P6SM FEW035
     FM050100 25008KT P6SM SCT050=



Latest METAR

339
SAUS70 KWBC 041000 RRA
MTRAND
METAR KAND 040956Z AUTO 00000KT 10SM CLR 12/09 A2977 RMK AO2 SLP073
T01170094


USA.gov is the U.S. government's official web portal to all federal, state and local government web resources and services.